Moline Acres, Missouri
Current Conditions -  °F | °C
As of 7:51 PM on Wednesday 26 Nov 2014 (Local Time) from KSTL Reporting Station
Light Snow Light Snow  
Wind Chill: 34°   Ceiling: 500
Heat Index: 34°   Visibility: 1.2mi
Dew Point: 32°   Wind: 0mph
Humidity: 92%   Direction: NA
Pressure: 30.08"   Gusts: NA
Location:  38.7423°N, 90.2608°W
Report Text: KSTL 270151Z 00000KT 1 1/4SM -SN OVC005 01/00 A3008 RMK AO2 SLP194 P0003 T00110000
Loading
Personal Weather Stations






























Interactive Weather Map New forecast layout! Learn more

10-Day Weather Forecast

Advertisements
Track Severe Weather on mobile